Time;durP1;ratioP1;P1;durP2;ratioP2;P2;SDS_P1;SDS_P2;PMS_P1;PMS_P2;Temp;Humidity;BMP_temperature;BMP_pressure;BME280_temperature;BME280_humidity;BME280_pressure;Samples;Min_cycle;Max_cycle;Signal;HPM_P1;HPM_P2
2022/09/20 00:02:15;;;;;;;;;;;;;;;12.85;81.50;102221.06;5004100;28;19952;-65
2022/09/20 00:04:40;;;;;;;;;;;;;;;12.81;81.50;102206.97;4992352;28;19952;-65
2022/09/20 00:07:05;;;;;;;;;;;;;;;12.80;81.61;102217.38;5001598;28;19912;-65
2022/09/20 00:09:31;;;;;;;;;;;;;;;12.77;81.53;102212.06;5003193;28;20135;-65
2022/09/20 00:11:56;;;;;;;;;;;;;;;12.77;81.70;102212.94;5004166;28;19906;-65
2022/09/20 00:14:21;;;;;;;;;;;;;;;12.76;81.65;102211.16;4992435;28;19910;-65
2022/09/20 00:16:46;;;;;;;;;;;;;;;12.76;81.52;102213.78;5004067;28;19948;-65
2022/09/20 00:19:16;;;;;;;;;;;;;;;12.76;81.66;102205.03;5003703;28;19905;-65
2022/09/20 00:21:41;;;;;;;;;;;;;;;12.76;81.68;102211.16;5003929;28;19944;-65
2022/09/20 00:24:07;;;;;;;;;;;;;;;12.75;81.91;102200.66;4991254;28;19992;-65
2022/09/20 00:26:32;;;;;;;;;;;;;;;12.74;81.78;102196.25;4976660;28;20133;-65
2022/09/20 00:28:57;;;;;;;;;;;;;;;12.73;81.94;102191.84;5003201;28;19906;-65
2022/09/20 00:31:23;;;;;;;;;;;;;;;12.73;82.09;102202.31;5003916;28;20164;-65
2022/09/20 00:36:32;;;;;;;;;;;;;;;12.70;82.11;102200.47;4994586;28;19912;-65
2022/09/20 00:38:59;;;;;;;;;;;;;;;12.68;82.08;102203.03;5003531;28;19910;-65
2022/09/20 00:41:24;;;;;;;;;;;;;;;12.67;83.05;102214.34;4998327;28;20053;-65
2022/09/20 00:43:49;;;;;;;;;;;;;;;12.63;82.13;102206.28;4992996;28;20153;-65
2022/09/20 00:46:20;;;;;;;;;;;;;;;12.61;82.33;102210.59;5003619;28;20267;-66
2022/09/20 00:48:46;;;;;;;;;;;;;;;12.59;82.23;102210.53;5001304;28;19906;-65
2022/09/20 00:51:14;;;;;;;;;;;;;;;12.59;82.06;102212.28;4979744;28;19906;-65
2022/09/20 00:53:40;;;;;;;;;;;;;;;12.59;82.14;102213.16;4986537;28;19909;-66
2022/09/20 00:56:08;;;;;;;;;;;;;;;12.58;82.09;102206.13;4991577;28;19956;-65
2022/09/20 00:58:36;;;;;;;;;;;;;;;12.58;82.05;102208.75;4998098;28;19906;-65
2022/09/20 01:01:03;;;;;;;;;;;;;;;12.57;82.09;102212.22;5003341;28;19906;-65
2022/09/20 01:03:30;;;;;;;;;;;;;;;12.58;82.04;102213.97;4999422;28;19910;-65
2022/09/20 01:05:56;;;;;;;;;;;;;;;12.57;82.04;102213.91;5003509;28;19921;-65
2022/09/20 01:08:24;;;;;;;;;;;;;;;12.57;81.97;102212.22;4989174;28;20545;-65
2022/09/20 01:10:49;;;;;;;;;;;;;;;12.57;81.91;102213.91;4990932;28;19906;-65
2022/09/20 01:13:15;;;;;;;;;;;;;;;12.55;81.75;102213.00;4999071;28;19910;-65
2022/09/20 01:15:41;;;;;;;;;;;;;;;12.56;81.61;102215.66;4989494;28;19910;-65
2022/09/20 01:18:08;;;;;;;;;;;;;;;12.55;81.70;102203.41;5003235;28;19928;-65
2022/09/20 01:20:38;;;;;;;;;;;;;;;12.53;81.79;102208.59;5003021;28;19913;-65
2022/09/20 01:23:22;;;;;;;;;;;;;;;12.55;81.76;102205.16;5002549;28;19967;-65
2022/09/20 01:25:59;;;;;;;;;;;;;;;12.54;81.83;102209.47;4991593;28;19973;-65
2022/09/20 01:28:25;;;;;;;;;;;;;;;12.52;81.73;102200.69;4999905;28;19985;-65
2022/09/20 01:31:06;;;;;;;;;;;;;;;12.51;81.78;102209.34;4992409;28;19905;-65
2022/09/20 01:33:49;;;;;;;;;;;;;;;12.50;81.85;102211.09;4988262;28;20105;-65
2022/09/20 01:36:22;;;;;;;;;;;;;;;12.50;82.03;102204.97;4996094;28;19968;-61
2022/09/20 01:38:47;;;;;;;;;;;;;;;12.50;82.05;102210.22;4983701;28;20137;-61
2022/09/20 01:41:15;;;;;;;;;;;;;;;12.47;81.89;102210.97;4980885;28;20081;-61
2022/09/20 01:43:40;;;;;;;;;;;;;;;12.45;82.02;102223.06;4990801;28;20256;-60
2022/09/20 01:46:32;;;;;;;;;;;;;;;12.45;82.06;102211.75;4989955;28;20159;-61
2022/09/20 01:49:17;;;;;;;;;;;;;;;12.43;82.07;102208.19;4986123;28;19936;-61
2022/09/20 01:51:55;;;;;;;;;;;;;;;12.43;81.98;102206.47;5000207;28;19924;-61
2022/09/20 01:54:20;;;;;;;;;;;;;;;12.43;82.12;102210.81;4993775;28;20020;-60
2022/09/20 01:56:58;;;;;;;;;;;;;;;12.43;82.12;102213.41;4983146;28;20072;-61
2022/09/20 01:59:38;;;;;;;;;;;;;;;12.43;82.24;102208.19;4983562;28;19910;-61
2022/09/20 02:02:09;;;;;;;;;;;;;;;12.40;82.24;102211.56;4997448;28;19997;-61
2022/09/20 02:04:52;;;;;;;;;;;;;;;12.39;82.30;102206.28;4980865;28;19906;-61
2022/09/20 02:07:23;;;;;;;;;;;;;;;12.38;82.20;102204.50;4982105;28;19925;-61
2022/09/20 02:10:01;;;;;;;;;;;;;;;12.37;82.27;102210.56;4982414;28;19922;-61
2022/09/20 02:12:45;;;;;;;;;;;;;;;12.33;82.47;102212.16;4986114;28;19984;-61
2022/09/20 02:15:19;;;;;;;;;;;;;;;12.32;82.25;102215.59;4989434;28;19926;-61
2022/09/20 02:17:52;;;;;;;;;;;;;;;12.32;82.46;102210.38;4987125;28;19929;-61
2022/09/20 02:20:26;;;;;;;;;;;;;;;12.30;82.43;102217.28;5005011;28;19906;-61
2022/09/20 02:22:57;;;;;;;;;;;;;;;12.29;82.60;102221.59;4997068;28;19942;-61
2022/09/20 02:25:43;;;;;;;;;;;;;;;12.30;82.47;102212.94;4989186;28;20072;-61
2022/09/20 02:28:11;;;;;;;;;;;;;;;12.31;82.51;102204.28;4993968;28;19957;-61
2022/09/20 02:30:56;;;;;;;;;;;;;;;12.30;82.47;102210.31;5000691;28;20141;-61
2022/09/20 02:33:38;;;;;;;;;;;;;;;12.27;82.51;102204.97;4990560;28;19937;-61
2022/09/20 02:36:07;;;;;;;;;;;;;;;12.25;82.24;102198.81;4985654;28;20025;-61
2022/09/20 02:38:38;;;;;;;;;;;;;;;12.25;82.52;102195.28;5005183;28;19913;-61
2022/09/20 02:41:21;;;;;;;;;;;;;;;12.20;82.69;102195.13;5003831;28;19910;-61
2022/09/20 02:44:10;;;;;;;;;;;;;;;12.19;82.60;102193.34;4978862;28;19925;-61
2022/09/20 02:47:01;;;;;;;;;;;;;;;12.20;82.67;102205.56;4981840;28;19905;-61
2022/09/20 02:49:45;;;;;;;;;;;;;;;12.22;82.65;102213.47;4999669;28;19941;-60
2022/09/20 02:52:22;;;;;;;;;;;;;;;12.19;82.73;102211.63;4982013;28;20015;-61
2022/09/20 02:54:57;;;;;;;;;;;;;;;12.20;82.64;102215.16;4981747;28;19932;-61
2022/09/20 02:57:29;;;;;;;;;;;;;;;12.18;82.66;102212.47;4989418;28;19917;-61
2022/09/20 03:00:05;;;;;;;;;;;;;;;12.17;82.68;102203.72;4993866;28;20196;-61
2022/09/20 03:02:53;;;;;;;;;;;;;;;12.16;82.68;102204.53;4984864;28;19910;-61
2022/09/20 03:05:36;;;;;;;;;;;;;;;12.14;82.88;102200.13;4979144;28;19934;-61
2022/09/20 03:08:01;;;;;;;;;;;;;;;12.14;82.83;102202.72;4991138;28;19980;-65
2022/09/20 03:10:41;;;;;;;;;;;;;;;12.13;82.91;102195.72;4991497;28;19910;-65
2022/09/20 03:13:13;;;;;;;;;;;;;;;12.16;82.82;102204.53;4994291;28;19910;-65
2022/09/20 03:15:44;;;;;;;;;;;;;;;12.17;82.87;102197.63;4996291;28;19989;-65
2022/09/20 03:18:10;;;;;;;;;;;;;;;12.17;82.93;102201.13;5004036;28;19913;-65
2022/09/20 03:20:42;;;;;;;;;;;;;;;12.17;82.92;102203.72;4994574;28;19910;-65
2022/09/20 03:23:10;;;;;;;;;;;;;;;12.17;82.98;102205.47;4984014;28;19945;-65
2022/09/20 03:25:44;;;;;;;;;;;;;;;12.18;83.03;102208.13;4984697;28;19916;-65
2022/09/20 03:28:28;;;;;;;;;;;;;;;12.16;82.91;102198.44;4997027;28;20161;-65
2022/09/20 03:31:05;;;;;;;;;;;;;;;12.15;82.85;102199.25;4980402;28;20022;-65
2022/09/20 03:33:33;;;;;;;;;;;;;;;12.11;83.07;102200.88;4983823;28;19913;-65
2022/09/20 03:35:58;;;;;;;;;;;;;;;12.12;83.05;102207.00;4987908;28;19953;-65
2022/09/20 03:38:40;;;;;;;;;;;;;;;12.11;83.30;102203.50;4988069;28;20096;-65
2022/09/20 03:41:23;;;;;;;;;;;;;;;12.11;83.27;102202.63;4999079;28;19910;-65
2022/09/20 03:43:54;;;;;;;;;;;;;;;12.10;83.20;102199.09;4983797;28;19910;-65
2022/09/20 03:46:20;;;;;;;;;;;;;;;12.11;83.31;102207.84;4981605;28;19925;-65
2022/09/20 03:48:54;;;;;;;;;;;;;;;12.11;83.39;102203.50;4985473;28;19910;-65
2022/09/20 03:51:28;;;;;;;;;;;;;;;12.11;83.45;102205.22;4986127;28;19909;-65
2022/09/20 03:54:09;;;;;;;;;;;;;;;12.11;83.54;102200.00;4987901;28;19913;-65
2022/09/20 03:56:37;;;;;;;;;;;;;;;12.10;83.56;102204.31;4982522;28;19917;-65
2022/09/20 03:59:02;;;;;;;;;;;;;;;12.09;83.43;102204.25;4997255;28;19910;-65
2022/09/20 04:01:37;;;;;;;;;;;;;;;12.07;83.83;102208.53;4986847;28;19921;-65
2022/09/20 04:04:10;;;;;;;;;;;;;;;12.07;83.86;102208.53;4988834;28;20107;-65
2022/09/20 04:06:55;;;;;;;;;;;;;;;12.07;83.98;102203.31;4986803;28;19956;-61
2022/09/20 04:09:55;;;;;;;;;;;;;;;12.07;83.80;102190.25;4991709;28;19948;-61
2022/09/20 04:12:36;;;;;;;;;;;;;;;12.06;84.03;102191.09;4896236;29;20289;-61
2022/09/20 04:15:04;;;;;;;;;;;;;;;12.02;84.22;102195.31;4979029;28;19933;-61
2022/09/20 04:17:48;;;;;;;;;;;;;;;12.03;84.34;102190.97;4996204;28;20067;-61
2022/09/20 04:20:13;;;;;;;;;;;;;;;12.03;84.34;102198.81;4985957;28;19932;-61
2022/09/20 04:22:39;;;;;;;;;;;;;;;12.04;84.17;102193.63;4990475;28;20160;-60
2022/09/20 04:25:26;;;;;;;;;;;;;;;12.04;84.24;102197.97;4982275;28;19969;-61
2022/09/20 04:27:55;;;;;;;;;;;;;;;12.06;84.11;102199.78;4988035;28;20164;-61
2022/09/20 04:30:25;;;;;;;;;;;;;;;12.06;84.25;102197.19;4982931;28;19916;-61
2022/09/20 04:32:58;;;;;;;;;;;;;;;12.07;84.15;102198.09;4985133;28;19973;-61
2022/09/20 04:38:26;;;;;;;;;;;;;;;12.06;84.04;102194.56;4992352;28;19913;-60
2022/09/20 04:41:07;;;;;;;;;;;;;;;12.07;84.18;102187.66;4996196;28;19906;-61
2022/09/20 04:43:52;;;;;;;;;;;;;;;12.08;84.16;102189.41;5000620;28;19910;-61
2022/09/20 04:46:36;;;;;;;;;;;;;;;12.08;84.09;102195.53;4980296;28;20033;-61
2022/09/20 04:49:16;;;;;;;;;;;;;;;12.09;84.18;102206.88;4987186;28;19952;-61
2022/09/20 04:51:45;;;;;;;;;;;;;;;12.08;84.02;102219.06;5000830;28;19905;-61
2022/09/20 04:54:48;;;;;;;;;;;;;;;12.08;84.05;102211.22;4997748;28;19929;-61
2022/09/20 04:57:33;;;;;;;;;;;;;;;12.09;84.25;102212.97;4904336;29;19915;-61
2022/09/20 04:59:58;;;;;;;;;;;;;;;12.09;84.26;102212.09;4905495;29;19907;-61
2022/09/20 05:02:42;;;;;;;;;;;;;;;12.09;84.14;102218.19;4946929;28;19929;-61
2022/09/20 05:05:10;;;;;;;;;;;;;;;12.09;84.42;102206.88;4986034;28;20135;-60
2022/09/20 05:07:55;;;;;;;;;;;;;;;12.10;84.12;102213.88;4992200;28;19926;-65
2022/09/20 05:10:44;;;;;;;;;;;;;;;12.07;84.35;102221.59;4991840;28;20103;-65
2022/09/20 05:13:09;;;;;;;;;;;;;;;12.05;84.30;102221.56;4988531;28;20141;-65
2022/09/20 05:15:57;;;;;;;;;;;;;;;12.07;84.34;102226.84;4990207;28;19910;-65
2022/09/20 05:18:22;;;;;;;;;;;;;;;12.08;84.31;102226.91;4957402;28;19940;-65
2022/09/20 05:21:06;;;;;;;;;;;;;;;12.08;84.27;102224.28;4995315;28;19929;-65
2022/09/20 05:23:48;;;;;;;;;;;;;;;12.09;84.06;102225.16;4975414;28;20314;-65
2022/09/20 05:26:18;;;;;;;;;;;;;;;12.10;84.24;102227.84;4989266;28;19918;-65
2022/09/20 05:28:48;;;;;;;;;;;;;;;12.09;84.15;102227.78;5001317;28;19909;-65
2022/09/20 05:31:19;;;;;;;;;;;;;;;12.08;84.17;102224.28;4993084;28;19925;-65
2022/09/20 05:33:55;;;;;;;;;;;;;;;12.09;84.03;102233.88;5003340;28;19906;-65
2022/09/20 05:36:39;;;;;;;;;;;;;;;12.07;84.10;102238.16;4993155;28;20046;-61
2022/09/20 05:39:23;;;;;;;;;;;;;;;12.07;84.27;102245.13;4968135;28;19917;-61
2022/09/20 05:41:55;;;;;;;;;;;;;;;12.05;84.16;102247.69;4990665;28;20061;-61
2022/09/20 05:44:39;;;;;;;;;;;;;;;12.04;84.27;102251.09;4995977;28;19906;-61
2022/09/20 05:47:21;;;;;;;;;;;;;;;12.06;84.21;102259.00;4997516;28;19948;-61
2022/09/20 05:49:49;;;;;;;;;;;;;;;12.04;84.22;102251.09;5005943;28;19938;-61
2022/09/20 05:52:30;;;;;;;;;;;;;;;12.04;84.35;102245.00;4996325;28;19914;-61
2022/09/20 05:55:02;;;;;;;;;;;;;;;12.04;84.25;102256.34;4988927;28;19948;-61
2022/09/20 05:57:34;;;;;;;;;;;;;;;12.04;84.47;102255.47;4974122;28;19981;-61
2022/09/20 06:00:02;;;;;;;;;;;;;;;12.04;84.45;102258.06;4989049;28;19910;-61
2022/09/20 06:02:52;;;;;;;;;;;;;;;12.03;84.38;102262.38;4988294;28;19914;-61
2022/09/20 06:05:29;;;;;;;;;;;;;;;12.02;84.53;102262.31;5004740;28;19944;-61
2022/09/20 06:08:03;;;;;;;;;;;;;;;12.02;84.62;102271.06;5004118;28;19905;-65
2022/09/20 06:10:40;;;;;;;;;;;;;;;12.00;84.77;102270.09;5000112;28;19906;-65
2022/09/20 06:13:29;;;;;;;;;;;;;;;12.00;84.78;102273.59;5006325;28;19940;-65
2022/09/20 06:16:05;;;;;;;;;;;;;;;11.99;85.05;102274.44;5001407;28;20203;-65
2022/09/20 06:18:44;;;;;;;;;;;;;;;11.99;84.95;102271.81;4988962;28;19921;-65
2022/09/20 06:21:19;;;;;;;;;;;;;;;11.98;84.94;102272.66;4989542;28;19926;-65
2022/09/20 06:23:45;;;;;;;;;;;;;;;11.97;84.93;102281.31;5000804;28;19972;-66
2022/09/20 06:26:16;;;;;;;;;;;;;;;11.97;85.01;102276.09;5005378;28;19929;-65
2022/09/20 06:28:44;;;;;;;;;;;;;;;11.98;85.05;102283.09;4991847;28;19961;-65
2022/09/20 06:31:10;;;;;;;;;;;;;;;11.98;85.20;102280.47;5005987;28;19932;-65
2022/09/20 06:33:43;;;;;;;;;;;;;;;11.99;85.12;102278.75;4992292;28;20025;-65
2022/09/20 06:41:50;;;;;;;;;;;;;;;11.99;85.19;102278.75;4986631;28;19913;-61
2022/09/20 06:44:15;;;;;;;;;;;;;;;11.99;85.22;102283.97;4981841;28;20171;-61
2022/09/20 06:46:40;;;;;;;;;;;;;;;11.99;85.13;102282.28;4983890;28;19914;-61
2022/09/20 06:49:08;;;;;;;;;;;;;;;12.00;85.58;102285.78;4986659;28;19997;-61
2022/09/20 06:51:34;;;;;;;;;;;;;;;11.99;85.50;102289.19;4988532;28;19981;-61
2022/09/20 06:54:00;;;;;;;;;;;;;;;11.99;85.72;102278.75;4984886;28;20104;-61
2022/09/20 06:56:27;;;;;;;;;;;;;;;12.00;85.90;102281.44;4985380;28;19914;-61
2022/09/20 06:58:52;;;;;;;;;;;;;;;12.01;85.70;102287.56;4988182;28;19930;-61
2022/09/20 07:01:18;;;;;;;;;;;;;;;12.02;86.19;102283.22;4984846;28;20060;-61
2022/09/20 07:03:43;;;;;;;;;;;;;;;12.04;85.97;102278.97;4991112;28;19912;-61
2022/09/20 07:06:09;;;;;;;;;;;;;;;12.05;86.03;102289.47;4981196;28;20153;-61
2022/09/20 07:08:35;;;;;;;;;;;;;;;12.07;86.39;102297.38;4988470;28;19910;-61
2022/09/20 07:11:04;;;;;;;;;;;;;;;12.06;86.58;102283.41;4989478;28;20219;-61
2022/09/20 07:13:29;;;;;;;;;;;;;;;12.06;86.31;102283.41;4987646;28;19909;-61
2022/09/20 07:16:05;;;;;;;;;;;;;;;12.08;85.70;102279.16;4984253;28;20506;-61
2022/09/20 07:18:31;;;;;;;;;;;;;;;12.10;85.62;102279.22;4981862;28;19958;-61
2022/09/20 07:20:57;;;;;;;;;;;;;;;12.12;86.37;102280.16;4981347;28;19933;-61
2022/09/20 07:23:24;;;;;;;;;;;;;;;12.14;86.25;102288.97;4981836;28;19930;-61
2022/09/20 07:25:49;;;;;;;;;;;;;;;12.16;86.83;102287.28;4986165;28;19910;-61
2022/09/20 07:28:15;;;;;;;;;;;;;;;12.19;86.39;102292.63;4984662;28;19917;-61
2022/09/20 07:30:40;;;;;;;;;;;;;;;12.20;86.39;102286.59;4993325;28;20144;-61
2022/09/20 07:33:08;;;;;;;;;;;;;;;12.22;86.41;102290.13;4989082;28;19934;-61
2022/09/20 07:35:35;;;;;;;;;;;;;;;12.23;86.65;102293.66;4998257;28;19998;-61
2022/09/20 07:38:01;;;;;;;;;;;;;;;12.24;86.56;102291.09;4978876;28;19985;-61
2022/09/20 07:40:27;;;;;;;;;;;;;;;12.26;86.79;102289.44;4985184;28;19918;-61
2022/09/20 07:42:52;;;;;;;;;;;;;;;12.28;87.28;102300.84;4983146;28;19945;-61
2022/09/20 07:45:17;;;;;;;;;;;;;;;12.30;86.48;102301.78;4982990;28;19910;-61
2022/09/20 07:47:45;;;;;;;;;;;;;;;12.33;86.67;102307.16;4987293;28;19906;-61
2022/09/20 07:50:10;;;;;;;;;;;;;;;12.38;86.68;102301.22;4994729;28;19956;-61
2022/09/20 07:52:36;;;;;;;;;;;;;;;12.42;86.64;102305.75;4986407;28;19929;-61
2022/09/20 07:55:01;;;;;;;;;;;;;;;12.45;86.90;102316.31;4982012;28;19917;-61
2022/09/20 07:57:26;;;;;;;;;;;;;;;12.48;86.64;102321.66;4972748;28;19949;-61
2022/09/20 07:59:51;;;;;;;;;;;;;;;12.51;86.61;102319.16;4996271;28;20145;-61
2022/09/20 08:02:17;;;;;;;;;;;;;;;12.53;86.58;102314.91;4989175;28;19910;-61
2022/09/20 08:04:42;;;;;;;;;;;;;;;12.56;86.59;102325.47;4986098;28;20056;-60
2022/09/20 08:07:08;;;;;;;;;;;;;;;12.59;86.73;102324.72;4985844;28;19941;-61
2022/09/20 08:09:33;;;;;;;;;;;;;;;12.61;86.72;102321.28;4995795;28;19964;-61
2022/09/20 08:11:58;;;;;;;;;;;;;;;12.64;86.56;102321.44;4995985;28;20021;-61
2022/09/20 08:14:24;;;;;;;;;;;;;;;12.68;86.58;102327.66;4999948;28;19961;-61
2022/09/20 08:16:50;;;;;;;;;;;;;;;12.70;86.64;102319.06;4967288;28;20021;-61
2022/09/20 08:19:19;;;;;;;;;;;;;;;12.75;86.56;102320.97;4998819;28;19906;-61
2022/09/20 08:21:45;;;;;;;;;;;;;;;12.78;86.57;102314.09;4986444;28;19910;-61
2022/09/20 08:24:10;;;;;;;;;;;;;;;12.86;86.81;102322.25;4993288;28;19929;-61
2022/09/20 08:26:36;;;;;;;;;;;;;;;12.92;86.50;102322.50;5003756;28;19976;-61
2022/09/20 08:29:01;;;;;;;;;;;;;;;12.96;86.33;102320.88;5003780;28;19910;-61
2022/09/20 08:31:30;;;;;;;;;;;;;;;13.00;86.42;102318.41;4981934;28;19929;-61
2022/09/20 08:33:55;;;;;;;;;;;;;;;13.06;86.05;102317.75;4990553;28;20164;-61
2022/09/20 08:36:22;;;;;;;;;;;;;;;13.11;85.66;102317.97;5003549;28;19905;-61
2022/09/20 08:38:48;;;;;;;;;;;;;;;13.18;85.68;102319.97;4993513;28;19910;-61
2022/09/20 08:41:16;;;;;;;;;;;;;;;13.26;85.24;102326.34;4984829;28;19925;-61
2022/09/20 08:43:45;;;;;;;;;;;;;;;13.28;84.98;102322.06;4991363;28;21090;-61
2022/09/20 08:46:13;;;;;;;;;;;;;;;13.34;83.94;102327.56;4988842;28;19941;-61
2022/09/20 08:48:38;;;;;;;;;;;;;;;13.37;84.21;102330.28;4980870;28;19910;-61
2022/09/20 08:51:06;;;;;;;;;;;;;;;13.46;84.19;102334.06;4991185;28;19913;-62
2022/09/20 08:53:32;;;;;;;;;;;;;;;13.52;83.97;102336.91;4992797;28;20172;-61
2022/09/20 08:55:58;;;;;;;;;;;;;;;13.59;83.73;102336.28;4983274;28;19918;-61
2022/09/20 08:58:23;;;;;;;;;;;;;;;13.67;83.47;102341.78;4995663;28;19914;-61
2022/09/20 09:00:49;;;;;;;;;;;;;;;13.73;83.17;102344.63;4990941;28;19969;-61
2022/09/20 09:03:17;;;;;;;;;;;;;;;13.79;83.31;102333.44;4981134;28;19910;-61
2022/09/20 09:05:44;;;;;;;;;;;;;;;13.90;83.65;102348.72;4984616;28;19933;-61
2022/09/20 09:08:15;;;;;;;;;;;;;;;14.00;83.61;102338.53;4981416;28;19953;-61
2022/09/20 09:10:40;;;;;;;;;;;;;;;14.08;82.92;102344.94;4978280;28;19910;-61
2022/09/20 09:13:06;;;;;;;;;;;;;;;14.17;83.01;102342.63;4981617;28;19917;-61
2022/09/20 09:15:34;;;;;;;;;;;;;;;14.26;82.15;102349.88;4983328;28;20091;-61
2022/09/20 09:18:00;;;;;;;;;;;;;;;14.35;81.96;102349.28;4980617;28;19937;-63
2022/09/20 09:20:25;;;;;;;;;;;;;;;14.44;81.23;102347.88;4988381;28;19909;-62
2022/09/20 09:23:05;;;;;;;;;;;;;;;14.54;81.17;102342.91;4983424;28;19918;-62
2022/09/20 09:25:33;;;;;;;;;;;;;;;14.60;79.72;102343.13;4982638;28;19956;-62
2022/09/20 09:28:04;;;;;;;;;;;;;;;14.64;79.04;102344.13;4983373;28;20091;-62
2022/09/20 09:30:30;;;;;;;;;;;;;;;14.66;78.11;102338.09;4986526;28;19910;-62
2022/09/20 09:33:14;;;;;;;;;;;;;;;14.70;78.33;102344.28;4995070;28;20011;-62
2022/09/20 09:35:39;;;;;;;;;;;;;;;14.73;79.17;102345.28;4991835;28;19906;-63
2022/09/20 09:38:12;;;;;;;;;;;;;;;14.73;77.97;102334.81;4993449;28;20168;-62
2022/09/20 09:40:47;;;;;;;;;;;;;;;14.76;78.73;102337.50;4996474;28;19933;-62
2022/09/20 09:43:18;;;;;;;;;;;;;;;14.79;78.43;102339.34;4992087;28;19913;-63
2022/09/20 09:45:43;;;;;;;;;;;;;;;14.80;78.05;102342.84;4985834;28;19993;-62
2022/09/20 09:48:21;;;;;;;;;;;;;;;14.80;77.99;102335.84;4980041;28;19910;-63
2022/09/20 09:50:47;;;;;;;;;;;;;;;14.83;78.15;102346.47;4993234;28;19910;-63
2022/09/20 09:53:14;;;;;;;;;;;;;;;14.81;77.46;102345.53;5002819;28;20931;-63
2022/09/20 09:55:58;;;;;;;;;;;;;;;14.82;77.39;102349.06;4990242;28;19918;-62
2022/09/20 09:58:25;;;;;;;;;;;;;;;14.81;77.45;102348.16;4986703;28;20008;-62
2022/09/20 10:00:52;;;;;;;;;;;;;;;14.80;77.52;102359.47;4984899;28;19977;-63
2022/09/20 10:03:29;;;;;;;;;;;;;;;14.79;77.18;102357.72;4996173;28;20009;-63
2022/09/20 10:06:07;;;;;;;;;;;;;;;14.77;77.53;102355.03;4992153;28;19977;-62
2022/09/20 10:08:38;;;;;;;;;;;;;;;14.75;77.58;102359.34;4988380;28;19937;-62
2022/09/20 10:11:06;;;;;;;;;;;;;;;14.75;77.53;102359.34;4985742;28;19957;-62
2022/09/20 10:13:54;;;;;;;;;;;;;;;14.74;77.68;102357.59;4992276;28;19916;-63
2022/09/20 10:16:20;;;;;;;;;;;;;;;14.74;77.73;102356.66;4995034;28;19906;-63
2022/09/20 10:19:05;;;;;;;;;;;;;;;14.73;77.84;102361.03;4996913;28;19965;-62
2022/09/20 10:21:30;;;;;;;;;;;;;;;14.71;78.02;102349.59;5004983;28;19912;-63
2022/09/20 10:23:55;;;;;;;;;;;;;;;14.72;77.84;102353.13;5006218;28;20056;-63
2022/09/20 10:26:28;;;;;;;;;;;;;;;14.72;78.05;102359.25;5006018;28;19906;-63
2022/09/20 10:28:54;;;;;;;;;;;;;;;14.72;77.96;102353.13;4986052;28;19989;-63
2022/09/20 10:31:21;;;;;;;;;;;;;;;14.73;78.02;102355.78;5002984;28;19909;-63
2022/09/20 10:34:08;;;;;;;;;;;;;;;14.73;78.05;102350.53;4996726;28;19922;-63
2022/09/20 10:36:37;;;;;;;;;;;;;;;14.75;77.94;102348.84;4987768;28;20235;-63
2022/09/20 10:39:17;;;;;;;;;;;;;;;14.75;78.01;102346.22;4991500;28;19926;-62
2022/09/20 10:45:06;;;;;;;;;;;;;;;14.80;78.00;102353.34;4967700;28;19925;-63
2022/09/20 10:47:33;;;;;;;;;;;;;;;14.83;77.95;102342.94;4987843;28;19910;-66
2022/09/20 10:50:10;;;;;;;;;;;;;;;14.85;77.79;102349.16;5001854;28;19905;-65
2022/09/20 10:52:45;;;;;;;;;;;;;;;14.88;77.79;102343.97;4990854;28;20191;-66
2022/09/20 10:55:24;;;;;;;;;;;;;;;14.90;77.45;102358.03;4999854;28;19906;-66
2022/09/20 10:57:52;;;;;;;;;;;;;;;14.94;77.60;102346.78;5005516;28;19925;-66
2022/09/20 11:00:27;;;;;;;;;;;;;;;14.97;77.69;102344.25;5002668;28;19917;-65
2022/09/20 11:02:52;;;;;;;;;;;;;;;14.99;77.39;102342.56;4994905;28;19921;-66
2022/09/20 11:05:20;;;;;;;;;;;;;;;15.01;77.50;102351.38;5005415;28;19906;-65
2022/09/20 11:07:45;;;;;;;;;;;;;;;15.03;77.56;102352.28;5005508;28;20114;-65
2022/09/20 11:10:19;;;;;;;;;;;;;;;15.05;77.21;102352.38;5005377;28;20136;-65
2022/09/20 11:12:55;;;;;;;;;;;;;;;15.10;77.48;102348.13;4994310;28;19937;-65
2022/09/20 11:15:26;;;;;;;;;;;;;;;15.17;76.89;102350.06;4998928;28;19909;-66
2022/09/20 11:17:52;;;;;;;;;;;;;;;15.25;77.13;102353.81;4992696;28;19918;-62
2022/09/20 11:20:17;;;;;;;;;;;;;;;15.37;77.30;102352.41;4993268;28;19906;-63
2022/09/20 11:22:57;;;;;;;;;;;;;;;15.46;75.74;102356.16;4988199;28;20046;-63
2022/09/20 11:25:29;;;;;;;;;;;;;;;15.53;74.81;102357.22;4985805;28;19932;-63
2022/09/20 11:28:01;;;;;;;;;;;;;;;15.55;75.09;102365.13;4985362;28;19917;-63
2022/09/20 11:30:29;;;;;;;;;;;;;;;15.56;75.10;102361.66;4984123;28;19910;-62
2022/09/20 11:33:23;;;;;;;;;;;;;;;15.55;74.92;102360.75;4966713;28;19916;-63
2022/09/20 11:35:53;;;;;;;;;;;;;;;15.55;74.96;102365.13;4970691;28;19926;-64
2022/09/20 11:38:45;;;;;;;;;;;;;;;15.52;74.73;102365.06;4981370;28;19937;-63
2022/09/20 11:41:17;;;;;;;;;;;;;;;15.51;73.97;102365.91;4984763;28;19909;-63
2022/09/20 11:43:44;;;;;;;;;;;;;;;15.50;73.68;102369.34;4983436;28;19997;-63
2022/09/20 11:46:18;;;;;;;;;;;;;;;15.46;73.21;102369.28;4980308;28;19933;-63
2022/09/20 11:48:43;;;;;;;;;;;;;;;15.44;73.29;102373.63;4985146;28;19926;-65
2022/09/20 11:51:27;;;;;;;;;;;;;;;15.45;74.03;102369.25;4989809;28;19969;-65
2022/09/20 11:54:11;;;;;;;;;;;;;;;15.48;75.66;102378.13;4992187;28;19937;-65
2022/09/20 11:56:37;;;;;;;;;;;;;;;15.46;73.84;102379.78;4992025;28;19917;-65
2022/09/20 11:59:06;;;;;;;;;;;;;;;15.48;73.84;102380.75;5004592;28;19928;-66
2022/09/20 12:01:38;;;;;;;;;;;;;;;15.45;73.98;102382.38;5002543;28;19984;-65
2022/09/20 12:04:23;;;;;;;;;;;;;;;15.44;73.52;102381.50;5001330;28;19997;-66
2022/09/20 12:07:08;;;;;;;;;;;;;;;15.43;73.70;102384.97;4983065;28;19972;-65
2022/09/20 12:09:35;;;;;;;;;;;;;;;15.41;73.23;102380.50;4975410;28;19906;-65
2022/09/20 12:12:13;;;;;;;;;;;;;;;15.41;73.03;102380.50;5002343;28;19945;-65
2022/09/20 12:14:38;;;;;;;;;;;;;;;15.39;73.89;102383.09;5004138;28;19910;-66
2022/09/20 12:17:05;;;;;;;;;;;;;;;15.39;73.52;102388.34;4967695;28;20160;-62
2022/09/20 12:19:31;;;;;;;;;;;;;;;15.37;73.32;102384.78;4981074;28;19918;-62
2022/09/20 12:21:59;;;;;;;;;;;;;;;15.36;73.29;102383.00;4982880;28;19918;-63
2022/09/20 12:24:28;;;;;;;;;;;;;;;15.35;73.59;102383.88;4985511;28;19922;-63
2022/09/20 12:26:58;;;;;;;;;;;;;;;15.35;73.07;102383.88;4993393;28;19953;-63
2022/09/20 12:29:23;;;;;;;;;;;;;;;15.36;73.34;102385.63;4994839;28;19913;-63
2022/09/20 12:31:52;;;;;;;;;;;;;;;15.37;73.50;102386.53;4982174;28;19910;-63
2022/09/20 12:34:18;;;;;;;;;;;;;;;15.37;73.49;102382.16;4980786;28;20057;-63
2022/09/20 12:36:52;;;;;;;;;;;;;;;15.39;73.31;102379.59;4990738;28;20145;-63
2022/09/20 12:39:21;;;;;;;;;;;;;;;15.39;73.91;102383.09;4978915;28;20256;-63
2022/09/20 12:41:46;;;;;;;;;;;;;;;15.42;73.71;102377.91;4991291;28;19909;-63
2022/09/20 12:44:23;;;;;;;;;;;;;;;15.48;73.85;102370.22;4981095;28;20020;-63
2022/09/20 12:46:54;;;;;;;;;;;;;;;15.54;72.85;102369.50;4979051;28;19917;-63
2022/09/20 12:55:09;;;;;;;;;;;;;;;15.72;72.36;102355.97;4984934;28;20101;-63
2022/09/20 12:57:35;;;;;;;;;;;;;;;15.77;71.46;102357.00;4989696;28;20127;-63
2022/09/20 13:00:04;;;;;;;;;;;;;;;15.80;71.82;102362.38;4979065;28;20157;-63
2022/09/20 13:02:48;;;;;;;;;;;;;;;15.84;72.46;102357.19;4979435;28;19910;-64
2022/09/20 13:05:30;;;;;;;;;;;;;;;15.85;71.70;102356.34;4981256;28;19917;-64
2022/09/20 13:08:00;;;;;;;;;;;;;;;15.88;72.11;102361.69;4982029;28;19917;-64
2022/09/20 13:10:28;;;;;;;;;;;;;;;15.91;71.53;102356.50;4984626;28;19910;-64
2022/09/20 13:12:57;;;;;;;;;;;;;;;15.92;71.85;102355.66;4986724;28;19916;-64
2022/09/20 13:15:22;;;;;;;;;;;;;;;15.94;71.48;102361.81;4990712;28;20163;-65
2022/09/20 13:17:50;;;;;;;;;;;;;;;15.93;70.91;102352.16;4981259;28;19910;-64
2022/09/20 13:20:19;;;;;;;;;;;;;;;15.95;71.33;102355.72;4979395;28;19910;-64